Terminal Aerodrome Forecast
Issued by NWS

Home | Current Version | Previous Version | Text Only | Print | Product List | Glossary On
Versions: 1 2 3 4 5 6 7 8 9 10 11 12 13 14 15 16 17 18 19 20 21 22 23 24 25 26
000
FTUS41 KBUF 300900 AAA
TAFJHW
TAF AMD
KJHW 300914Z 3009/0106 VRB03KT 1/4SM FG OVC001
     FM301200 VRB03KT 1/2SM FG SCT002 BKN007
      TEMPO 3012/3014 4SM BR SCT007
     FM301400 VRB03KT P6SM SCT200
     FM301700 VRB03KT 6SM BR VCSH SCT035 BKN110
     FM301800 VRB03KT 6SM -SHRA SCT035 OVC090
     FM010100 VRB03KT P6SM SCT035 OVC050
      AMD LTD TO CLD VIS AND WIND=

USA.gov is the U.S. government's official web portal to all federal, state and local government web resources and services.